Time;durP1;ratioP1;P1;durP2;ratioP2;P2;SDS_P1;SDS_P2;PMS_P1;PMS_P2;Temp;Humidity;BMP_temperature;BMP_pressure;BME280_temperature;BME280_humidity;BME280_pressure;Samples;Min_cycle;Max_cycle;Signal;HPM_P1;HPM_P2
2024/04/04 00:04:29;;;;;;;2.28;2.00;;;10.80;99.90;;;11.63;100.00;97544.69;10377534;28;20226;-67
2024/04/04 00:09:32;;;;;;;2.42;1.90;;;10.90;99.90;;;11.52;100.00;97528.81;10391803;28;20229;-66
2024/04/04 00:14:35;;;;;;;3.63;1.80;;;10.90;99.90;;;11.83;100.00;97530.28;10376038;28;20258;-66
2024/04/04 00:19:37;;;;;;;2.92;1.70;;;11.10;99.90;;;11.66;100.00;97527.78;10371104;28;20865;-66
2024/04/04 00:24:39;;;;;;;2.63;1.90;;;11.10;99.90;;;11.75;100.00;97536.72;10387639;28;20235;-66
2024/04/04 00:29:43;;;;;;;2.97;1.67;;;11.10;99.90;;;11.50;100.00;97540.66;10379641;28;20324;-66
2024/04/04 00:34:46;;;;;;;2.85;1.73;;;11.00;99.90;;;11.60;100.00;97549.69;10374330;28;20218;-66
2024/04/04 00:39:48;;;;;;;3.22;2.00;;;11.00;99.90;;;11.84;100.00;97558.50;10410363;28;20748;-68
2024/04/04 00:44:51;;;;;;;1.77;1.50;;;11.10;99.90;;;11.64;100.00;97555.00;10378185;28;20308;-66
2024/04/04 00:49:54;;;;;;;2.38;1.80;;;11.00;99.90;;;11.71;100.00;97551.06;10374870;28;20230;-66
2024/04/04 00:54:57;;;;;;;3.70;1.90;;;11.00;99.90;;;11.67;100.00;97560.25;10376104;28;20320;-66
2024/04/04 01:00:03;;;;;;;3.20;1.80;;;11.00;99.90;;;11.67;100.00;97570.50;10376030;28;20232;-66
2024/04/04 01:05:06;;;;;;;2.67;1.80;;;11.10;99.90;;;11.62;100.00;97579.66;10374285;28;20685;-67
2024/04/04 01:10:09;;;;;;;3.47;1.70;;;11.00;99.90;;;11.65;100.00;97587.50;10392669;28;20240;-67
2024/04/04 01:15:13;;;;;;;3.75;1.70;;;11.00;99.90;;;11.64;100.00;97593.41;10377346;28;20806;-67
2024/04/04 01:20:15;;;;;;;2.33;1.88;;;11.00;99.90;;;11.80;100.00;97596.72;10372840;28;20845;-67
2024/04/04 01:25:19;;;;;;;3.03;1.80;;;11.10;99.90;;;11.70;100.00;97588.59;10389665;28;20809;-67
2024/04/04 01:30:21;;;;;;;2.70;1.80;;;11.00;99.90;;;11.64;100.00;97590.84;10373672;28;20692;-67
2024/04/04 01:35:24;;;;;;;2.38;1.55;;;11.00;99.90;;;11.52;100.00;97590.25;10377415;28;20308;-67
2024/04/04 01:40:27;;;;;;;2.95;2.00;;;10.90;99.90;;;11.38;100.00;97592.13;10371796;28;20691;-67
2024/04/04 01:45:29;;;;;;;4.03;1.95;;;10.70;99.90;;;11.21;100.00;97593.84;10370600;28;20315;-67
2024/04/04 01:50:31;;;;;;;3.17;2.13;;;10.50;99.90;;;11.07;100.00;97599.94;10376501;28;20313;-67
2024/04/04 01:55:35;;;;;;;3.65;2.00;;;10.30;99.90;;;10.96;100.00;97591.75;10381444;28;20239;-67
2024/04/04 02:00:38;;;;;;;1.95;1.60;;;10.20;99.90;;;11.07;100.00;97591.41;10380681;28;20600;-67
2024/04/04 02:05:40;;;;;;;2.78;1.70;;;10.30;99.90;;;10.99;100.00;97611.50;10384034;28;20675;-67
2024/04/04 02:10:44;;;;;;;1.90;1.80;;;10.30;99.90;;;10.84;100.00;97606.44;10379369;28;20708;-67
2024/04/04 02:15:47;;;;;;;5.95;1.92;;;10.20;99.90;;;10.93;100.00;97608.59;10380645;28;20351;-67
2024/04/04 02:20:49;;;;;;;3.05;1.98;;;10.30;99.90;;;10.92;100.00;97606.84;10378059;28;20936;-67
2024/04/04 02:25:52;;;;;;;4.15;1.60;;;10.30;99.90;;;10.96;100.00;97607.09;10379104;28;22192;-67
2024/04/04 02:30:55;;;;;;;2.88;1.70;;;10.30;99.90;;;10.98;100.00;97599.47;10379257;28;20739;-67
2024/04/04 02:35:58;;;;;;;2.45;1.65;;;10.30;99.90;;;10.98;100.00;97596.94;10374902;28;20880;-67
2024/04/04 02:41:04;;;;;;;2.53;2.10;;;10.30;99.90;;;10.96;100.00;97589.19;10376630;28;20386;-66
2024/04/04 02:46:06;;;;;;;3.85;2.00;;;10.30;99.90;;;10.98;100.00;97582.44;10379192;28;20827;-67
2024/04/04 02:51:08;;;;;;;2.28;2.10;;;10.30;99.90;;;10.97;100.00;97577.28;10373007;28;20808;-67
2024/04/04 02:56:12;;;;;;;4.03;2.08;;;10.30;99.90;;;10.98;100.00;97584.13;10379025;28;20324;-67
2024/04/04 03:01:14;;;;;;;2.42;1.73;;;10.30;99.90;;;11.03;100.00;97586.13;10378540;28;20607;-67
2024/04/04 03:06:18;;;;;;;3.30;1.90;;;10.30;99.90;;;10.93;100.00;97580.47;10377415;28;20313;-67
2024/04/04 03:11:22;;;;;;;2.67;1.90;;;10.20;99.90;;;10.88;100.00;97581.94;10382090;28;20690;-67
2024/04/04 03:16:24;;;;;;;4.15;1.77;;;10.10;99.90;;;10.72;100.00;97583.69;10391862;28;20236;-67
2024/04/04 03:21:26;;;;;;;1.92;1.50;;;10.00;99.90;;;10.68;100.00;97573.22;10376240;28;20255;-67
2024/04/04 03:26:30;;;;;;;3.65;1.80;;;10.00;99.90;;;10.55;100.00;97572.56;10376422;28;20309;-67
2024/04/04 03:31:32;;;;;;;1.50;1.50;;;9.90;99.90;;;10.69;100.00;97575.84;10376434;28;20232;-67
2024/04/04 03:36:34;;;;;;;4.28;1.88;;;9.90;99.90;;;10.75;100.00;97567.63;10368648;28;20225;-67
2024/04/04 03:41:37;;;;;;;4.88;3.00;;;10.10;99.90;;;10.83;100.00;97567.22;10375369;28;20248;-67
2024/04/04 03:46:40;;;;;;;4.05;2.10;;;10.10;99.90;;;10.66;100.00;97550.13;10373811;28;20217;-67
2024/04/04 03:51:42;;;;;;;3.47;2.10;;;10.00;99.90;;;10.71;100.00;97553.81;10372422;28;20241;-67
2024/04/04 03:56:45;;;;;;;3.17;2.30;;;10.00;99.90;;;10.69;100.00;97551.97;10376115;28;20306;-67
2024/04/04 04:01:48;;;;;;;4.28;2.10;;;10.00;99.90;;;10.72;100.00;97560.66;10362572;28;21001;-66
2024/04/04 04:06:50;;;;;;;4.00;2.95;;;10.10;99.90;;;10.78;100.00;97555.88;10366782;28;20600;-68
2024/04/04 04:11:53;;;;;;;6.10;2.33;;;10.00;99.90;;;10.75;100.00;97558.28;10362187;28;20231;-66
2024/04/04 04:16:56;;;;;;;2.58;2.00;;;10.00;99.90;;;10.68;100.00;97575.78;10363275;28;20225;-68
2024/04/04 04:21:58;;;;;;;3.00;2.47;;;10.00;99.90;;;10.67;100.00;97576.56;10364049;28;20720;-68
2024/04/04 04:27:02;;;;;;;2.28;2.08;;;9.90;99.90;;;10.69;100.00;97575.84;10367655;28;20236;-68
2024/04/04 04:32:05;;;;;;;2.28;2.03;;;10.00;99.90;;;10.65;100.00;97585.84;10376519;28;20685;-67
2024/04/04 04:37:08;;;;;;;2.08;1.88;;;10.00;99.90;;;10.68;100.00;97574.09;10374443;28;20318;-66
2024/04/04 04:42:12;;;;;;;2.28;2.00;;;10.00;99.90;;;10.75;100.00;97581.28;10368628;28;20614;-65
2024/04/04 04:47:14;;;;;;;3.10;1.80;;;10.10;99.90;;;10.82;100.00;97577.38;10372615;28;20347;-66
2024/04/04 04:52:17;;;;;;;2.03;1.90;;;10.10;99.90;;;10.86;100.00;97588.63;10370060;28;20829;-67
2024/04/04 04:57:20;;;;;;;3.05;1.98;;;10.10;99.90;;;11.02;100.00;97597.16;10397171;28;20708;-67
2024/04/04 05:02:22;;;;;;;3.70;3.40;;;10.20;99.90;;;11.14;100.00;97596.03;10404875;28;20367;-65
2024/04/04 05:07:25;;;;;;;4.18;3.10;;;10.30;99.90;;;11.14;100.00;97585.81;10370633;28;20243;-67
2024/04/04 05:12:28;;;;;;;3.60;3.10;;;10.30;99.90;;;11.12;100.00;97570.38;10370737;28;20780;-67
2024/04/04 05:17:31;;;;;;;2.72;2.53;;;10.40;99.90;;;11.44;100.00;97569.38;10368790;28;20228;-67
2024/04/04 05:22:33;;;;;;;2.75;1.88;;;10.60;99.90;;;11.64;100.00;97570.34;10371665;28;20222;-67
2024/04/04 05:27:36;;;;;;;1.70;1.50;;;10.70;99.90;;;11.48;100.00;97563.63;10370520;28;20226;-69
2024/04/04 05:32:39;;;;;;;3.28;1.67;;;10.70;99.90;;;11.54;100.00;97573.28;10360966;28;20236;-70
2024/04/04 05:37:41;;;;;;;1.80;1.70;;;10.80;99.90;;;11.56;100.00;97574.25;10367777;28;20218;-66
2024/04/04 05:42:44;;;;;;;1.70;1.35;;;10.80;99.90;;;11.27;100.00;97573.72;10368218;28;20259;-67
2024/04/04 05:47:47;;;;;;;2.75;1.70;;;10.60;99.90;;;11.28;100.00;97579.69;10360554;28;20751;-67
2024/04/04 05:52:49;;;;;;;4.07;1.88;;;10.60;99.90;;;11.74;100.00;97571.69;10383915;28;20233;-65
2024/04/04 05:57:53;;;;;;;3.03;1.88;;;11.00;99.90;;;12.83;100.00;97556.16;10382339;28;20217;-67
2024/04/04 06:02:55;;;;;;;1.85;1.63;;;11.90;99.90;;;13.50;93.16;97566.72;10378759;28;20227;-67
2024/04/04 06:07:57;;;;;;;2.47;1.67;;;12.60;99.90;;;14.38;88.94;97557.28;10412217;28;20296;-67
2024/04/04 06:13:02;;;;;;;2.42;1.80;;;13.30;99.90;;;15.14;83.54;97559.19;10384466;28;20401;-67
2024/04/04 06:18:05;;;;;;;2.90;2.05;;;13.70;99.90;;;14.82;84.14;97551.22;10373113;28;20320;-67
2024/04/04 06:23:07;;;;;;;2.60;1.80;;;13.50;99.90;;;14.37;84.07;97561.56;10375745;28;20314;-67
2024/04/04 06:28:11;;;;;;;2.45;1.70;;;13.20;99.90;;;13.86;84.98;97556.16;10377800;28;20317;-67
2024/04/04 06:33:13;;;;;;;1.80;1.65;;;12.80;99.90;;;13.54;89.80;97562.59;10382681;28;20309;-67
2024/04/04 06:38:15;;;;;;;1.85;1.38;;;12.50;99.90;;;13.47;91.34;97561.44;10387388;28;20249;-67
2024/04/04 06:43:19;;;;;;;2.25;1.55;;;12.50;99.90;;;13.52;90.21;97562.53;10393894;28;20272;-67
2024/04/04 06:48:21;;;;;;;2.75;1.90;;;12.60;99.90;;;13.79;91.16;97571.28;10392904;28;20285;-67
2024/04/04 06:53:23;;;;;;;2.47;2.00;;;12.80;99.90;;;14.04;88.24;97553.44;10392123;28;20357;-67
2024/04/04 06:58:26;;;;;;;3.33;1.92;;;13.00;99.90;;;13.90;90.64;97536.59;10394324;28;20332;-67
2024/04/04 07:03:29;;;;;;;1.92;1.83;;;12.90;99.90;;;14.56;91.15;97542.53;10391618;28;20668;-67
2024/04/04 07:08:31;;;;;;;2.13;1.92;;;13.50;99.90;;;14.82;85.73;97556.38;10388820;28;20371;-66
2024/04/04 07:13:36;;;;;;;2.63;1.70;;;13.70;99.90;;;15.47;83.13;97555.97;10399760;28;20307;-67
2024/04/04 07:18:39;;;;;;;1.98;1.67;;;14.10;99.90;;;17.13;71.68;97537.72;10381161;28;20321;-67
2024/04/04 07:23:41;;;;;;;2.55;1.77;;;15.20;99.90;;;17.75;69.76;97536.69;10386831;28;20317;-64
2024/04/04 07:28:45;;;;;;;3.25;1.70;;;15.90;99.90;;;17.72;68.51;97533.16;10386986;28;20341;-65
2024/04/04 07:33:47;;;;;;;2.65;1.50;;;16.10;99.90;;;17.92;67.03;97544.88;10405775;28;20297;-64
2024/04/04 07:38:49;;;;;;;3.78;1.50;;;16.80;99.90;;;18.32;66.62;97538.00;10407777;28;20309;-64
2024/04/04 07:43:53;;;;;;;3.42;1.52;;;17.20;99.90;;;18.49;63.69;97537.47;10389918;28;20248;-64
2024/04/04 07:48:56;;;;;;;2.78;1.85;;;17.10;99.90;;;17.98;63.63;97545.00;10390328;28;20689;-66
2024/04/04 07:53:59;;;;;;;4.70;2.47;;;16.70;99.90;;;17.54;65.97;97547.38;10394481;28;20249;-67
2024/04/04 07:59:02;;;;;;;4.82;1.77;;;16.30;99.90;;;17.17;66.32;97555.03;10393366;28;20253;-66
2024/04/04 08:04:05;;;;;;;4.18;2.22;;;16.10;99.90;;;16.74;66.26;97564.16;10385332;28;20851;-66
2024/04/04 08:09:08;;;;;;;7.28;2.15;;;15.70;99.90;;;16.19;69.30;97566.88;10379315;28;20313;-66
2024/04/04 08:14:12;;;;;;;5.88;2.10;;;15.40;99.90;;;15.94;70.98;97574.72;10378445;28;20363;-66
2024/04/04 08:19:14;;;;;;;4.88;2.00;;;15.20;99.90;;;15.75;72.39;97584.41;10383941;28;20307;-66
2024/04/04 08:24:16;;;;;;;5.47;2.03;;;15.10;99.90;;;15.57;74.02;97570.03;10384973;28;20329;-66
2024/04/04 08:29:20;;;;;;;6.13;1.83;;;14.90;99.90;;;15.42;75.46;97580.69;10399131;28;20333;-67
2024/04/04 08:34:23;;;;;;;6.15;2.20;;;14.70;99.90;;;15.44;74.16;97579.94;10392675;28;20732;-66
2024/04/04 08:39:25;;;;;;;5.65;2.05;;;14.70;99.90;;;15.23;73.73;97580.09;10391334;28;20257;-66
2024/04/04 08:44:29;;;;;;;5.15;2.08;;;14.60;99.90;;;15.13;73.84;97585.72;10392636;28;20276;-66
2024/04/04 08:49:32;;;;;;;6.35;2.60;;;14.50;99.90;;;14.93;74.75;97582.47;10391009;28;20257;-66
2024/04/04 08:54:36;;;;;;;4.28;1.90;;;14.40;99.90;;;15.00;74.86;97586.16;10392739;28;20375;-66
2024/04/04 08:59:40;;;;;;;6.05;2.83;;;14.30;99.90;;;14.98;75.23;97587.78;10391557;28;20253;-66
2024/04/04 09:04:42;;;;;;;4.97;2.33;;;14.30;99.90;;;15.11;73.45;97584.81;10408466;28;20725;-66
2024/04/04 09:09:47;;;;;;;4.57;2.38;;;14.40;99.90;;;15.03;74.02;97581.09;10392944;28;20249;-66
2024/04/04 09:14:58;;;;;;;4.53;2.20;;;14.30;99.90;;;15.21;73.64;97596.31;10391667;28;20264;-66
2024/04/04 09:20:00;;;;;;;5.25;2.10;;;14.50;99.90;;;15.06;72.96;97586.34;10390513;28;20261;-66
2024/04/04 09:25:04;;;;;;;3.22;2.00;;;14.40;99.90;;;15.15;74.01;97581.53;10391120;28;20249;-66
2024/04/04 09:30:12;;;;;;;5.75;2.35;;;14.40;99.90;;;15.05;74.77;97584.59;10391386;28;20267;-66
2024/04/04 09:35:16;;;;;;;4.85;2.25;;;14.20;99.90;;;15.01;74.19;97593.91;10392033;28;20264;-66
2024/04/04 09:40:19;;;;;;;5.43;2.33;;;14.20;99.90;;;15.05;74.74;97584.59;10390601;28;20332;-66
2024/04/04 09:45:22;;;;;;;4.28;1.60;;;14.30;99.90;;;15.31;72.69;97583.81;10392258;28;20260;-66
2024/04/04 09:50:25;;;;;;;4.20;2.10;;;14.50;99.90;;;15.16;73.55;97587.53;10388612;28;20249;-66
2024/04/04 09:55:27;;;;;;;4.47;2.05;;;14.40;99.90;;;15.18;72.62;97591.91;10392984;28;20497;-67
2024/04/04 10:00:32;;;;;;;3.58;1.90;;;14.50;99.90;;;15.46;71.71;97588.59;10390982;28;20636;-68
2024/04/04 10:05:36;;;;;;;5.05;2.17;;;14.70;99.90;;;15.46;71.14;97593.75;10392320;28;20245;-67
2024/04/04 10:10:39;;;;;;;3.55;2.00;;;14.70;99.90;;;15.58;70.10;97593.28;10392547;28;20252;-68
2024/04/04 10:15:45;;;;;;;3.50;1.80;;;14.80;99.90;;;15.79;69.46;97593.13;10395190;28;20361;-67
2024/04/04 10:20:52;;;;;;;3.03;1.88;;;15.00;99.90;;;15.85;68.05;97590.75;10384029;28;20309;-67
2024/04/04 10:26:05;;;;;;;5.63;2.10;;;15.10;99.90;;;16.10;68.01;97594.97;10390406;28;20324;-67
2024/04/04 10:31:09;;;;;;;4.70;2.08;;;15.30;99.90;;;16.15;68.38;97593.41;10395724;22;20393;-69
2024/04/04 10:36:12;;;;;;;4.40;1.88;;;15.40;99.90;;;16.22;71.79;97599.63;10345809;28;20249;-68
2024/04/04 10:41:14;;;;;;;3.35;1.60;;;15.40;99.90;;;15.72;76.17;97607.50;10335884;28;20318;-71
2024/04/04 10:46:17;;;;;;;3.83;1.65;;;15.10;99.90;;;15.45;80.19;97614.28;10293624;28;20226;-68
2024/04/04 10:51:19;;;;;;;4.63;1.92;;;14.80;99.90;;;15.01;84.65;97603.34;10285280;28;20230;-70
2024/04/04 10:56:23;;;;;;;5.00;2.33;;;14.30;99.90;;;14.75;87.91;97617.84;10298702;28;20245;-68
2024/04/04 11:01:28;;;;;;;4.72;2.10;;;14.10;99.90;;;14.70;88.44;97616.78;10293581;28;20226;-70
2024/04/04 11:13:12;;;;;;;4.38;2.30;;;13.90;99.90;;;14.20;95.62;97624.31;10313365;28;20697;-67
2024/04/04 11:18:16;;;;;;;4.43;2.15;;;13.80;99.90;;;14.08;96.51;97634.09;10324870;28;20254;-68
2024/04/04 11:23:18;;;;;;;4.57;2.60;;;13.70;99.90;;;13.97;100.00;97623.41;10327537;28;20748;-71
2024/04/04 11:28:20;;;;;;;4.60;2.25;;;13.60;99.90;;;13.97;100.00;97613.13;10324551;28;20258;-67
2024/04/04 11:33:24;;;;;;;4.15;2.00;;;13.60;99.90;;;14.09;94.98;97610.16;10324772;28;20259;-67
2024/04/04 11:38:26;;;;;;;4.13;2.10;;;13.60;99.90;;;14.09;96.12;97612.72;10318921;28;20235;-67
2024/04/04 11:43:31;;;;;;;5.75;2.42;;;13.70;99.90;;;14.27;96.00;97600.56;10320876;28;21017;-67
2024/04/04 11:48:34;;;;;;;5.53;2.15;;;13.90;99.90;;;14.48;91.57;97597.06;10316363;28;20253;-70
2024/04/04 11:53:37;;;;;;;5.88;2.58;;;14.00;99.90;;;14.51;88.74;97605.78;10321093;28;20258;-67
2024/04/04 11:58:39;;;;;;;6.78;2.63;;;14.10;99.90;;;14.58;89.18;97602.66;10336080;28;20251;-67
2024/04/04 12:03:42;;;;;;;4.85;1.92;;;14.20;99.90;;;14.69;88.59;97600.47;10317402;28;20250;-68
2024/04/04 12:08:44;;;;;;;4.68;2.20;;;14.30;99.90;;;14.70;89.18;97599.63;10326630;28;20254;-67
2024/04/04 12:13:47;;;;;;;5.55;2.15;;;14.30;99.90;;;14.72;88.37;97610.88;10308069;28;20338;-67
2024/04/04 12:24:14;;;;;;;4.22;1.85;;;14.40;99.90;;;15.00;84.38;97610.19;10308249;28;20723;-69
2024/04/04 12:29:16;;;;;;;4.25;1.88;;;14.50;99.90;;;14.93;85.14;97605.63;10312532;28;20313;-68
2024/04/04 12:34:20;;;;;;;3.70;1.90;;;14.50;99.90;;;15.12;84.02;97617.47;10312645;28;20331;-69
2024/04/04 12:39:23;;;;;;;2.28;1.70;;;14.60;99.90;;;15.31;85.03;97619.84;10315130;28;20251;-69
2024/04/04 12:44:25;;;;;;;4.13;1.75;;;14.70;99.90;;;15.29;83.53;97625.78;10304984;28;20354;-68
2024/04/04 12:49:28;;;;;;;4.57;1.88;;;14.80;99.90;;;15.38;80.82;97630.38;10323864;28;20328;-69
2024/04/04 12:54:30;;;;;;;3.97;2.00;;;14.90;99.90;;;15.30;79.42;97642.97;10297311;28;20322;-68
2024/04/04 12:59:32;;;;;;;2.38;1.80;;;14.90;99.90;;;15.08;79.95;97631.06;10304452;28;20313;-68
2024/04/04 13:04:36;;;;;;;3.08;1.70;;;14.80;99.90;;;14.90;81.34;97630.38;10317013;28;20651;-71
2024/04/04 13:09:38;;;;;;;2.45;1.50;;;14.60;99.90;;;14.69;81.67;97620.19;10309737;28;20786;-68
2024/04/04 13:14:40;;;;;;;1.77;1.52;;;14.40;99.90;;;14.67;80.91;97616.66;10314057;28;20259;-70
2024/04/04 13:19:44;;;;;;;2.25;1.40;;;14.30;99.90;;;14.65;80.27;97616.63;10310353;28;20905;-71
2024/04/04 13:24:46;;;;;;;2.08;1.80;;;14.20;99.90;;;14.68;78.11;97618.41;10326785;28;20261;-69
2024/04/04 13:29:49;;;;;;;3.15;1.67;;;14.40;99.90;;;14.71;77.77;97598.84;10295626;28;20674;-70
2024/04/04 13:34:52;;;;;;;2.95;1.60;;;14.40;99.90;;;14.75;78.04;97600.69;10321073;28;20326;-68
2024/04/04 13:39:55;;;;;;;2.83;1.55;;;14.40;99.90;;;14.82;77.14;97594.97;10307155;28;20309;-67
2024/04/04 13:44:57;;;;;;;3.72;1.80;;;14.50;99.90;;;14.71;77.96;97585.97;10312293;28;20662;-68
2024/04/04 13:50:01;;;;;;;1.58;1.48;;;14.40;99.90;;;14.70;76.18;97563.63;10316024;28;20318;-68
2024/04/04 13:55:03;;;;;;;3.30;1.80;;;14.50;99.90;;;14.73;76.05;97557.72;10326100;28;20338;-67
2024/04/04 14:00:07;;;;;;;1.80;1.33;;;14.50;99.90;;;14.82;76.40;97546.06;10321488;28;20254;-69
2024/04/04 14:05:11;;;;;;;2.05;1.50;;;14.50;99.90;;;14.85;75.27;97535.00;10339483;28;20321;-71
2024/04/04 14:10:13;;;;;;;3.20;1.80;;;14.50;99.90;;;14.86;76.20;97547.91;10316690;28;20317;-68
2024/04/04 14:15:15;;;;;;;1.98;1.60;;;14.50;99.90;;;14.92;77.10;97547.25;10319297;28;20313;-68
2024/04/04 14:20:19;;;;;;;3.00;1.63;;;14.40;99.90;;;14.79;77.08;97561.41;10337851;28;20366;-69
2024/04/04 14:25:22;;;;;;;2.03;1.85;;;14.40;99.90;;;14.86;76.96;97555.63;10326505;28;20688;-68
2024/04/04 14:30:25;;;;;;;2.63;1.60;;;14.50;99.90;;;14.95;77.56;97552.50;10323373;28;20338;-68
2024/04/04 14:35:29;;;;;;;3.42;1.60;;;14.50;99.90;;;15.04;77.79;97557.97;10313261;28;20292;-68
2024/04/04 14:40:31;;;;;;;2.03;1.65;;;14.50;99.90;;;15.03;80.26;97555.38;10312432;28;20672;-70
2024/04/04 14:45:33;;;;;;;4.80;2.97;;;14.60;99.90;;;14.95;83.45;97551.63;10310941;28;20381;-70
2024/04/04 14:50:36;;;;;;;6.65;5.55;;;14.50;99.90;;;15.15;83.37;97558.34;10300087;28;20309;-70
2024/04/04 14:55:39;;;;;;;6.65;4.78;;;14.60;99.90;;;15.29;83.01;97564.84;10323224;28;20333;-71
2024/04/04 15:00:41;;;;;;;3.13;1.80;;;15.10;99.90;;;15.49;82.28;97562.06;10295739;28;20652;-71
2024/04/04 15:05:50;;;;;;;2.65;1.80;;;15.10;99.90;;;15.53;81.56;97563.91;10298361;28;20337;-70
2024/04/04 15:10:53;;;;;;;3.13;1.77;;;15.10;99.90;;;15.51;80.85;97560.41;10304380;28;20361;-68
2024/04/04 15:15:55;;;;;;;2.03;1.80;;;15.10;99.90;;;15.71;79.30;97551.66;10299844;28;20235;-69
2024/04/04 15:20:58;;;;;;;2.10;1.50;;;15.30;99.90;;;15.62;79.06;97553.00;10316561;28;20314;-68
2024/04/04 15:26:01;;;;;;;5.45;4.03;;;15.20;99.90;;;15.75;78.43;97558.66;10327819;28;20806;-71
2024/04/04 15:31:03;;;;;;;5.15;3.88;;;15.20;99.90;;;15.81;76.52;97554.53;10313238;28;20310;-66
2024/04/04 15:36:07;;;;;;;4.18;2.20;;;15.20;99.90;;;15.85;77.06;97546.94;10312562;28;20318;-67
2024/04/04 15:41:10;;;;;;;7.32;5.07;;;15.30;99.90;;;16.02;74.12;97544.00;10315758;28;20670;-68
2024/04/04 15:46:12;;;;;;;2.97;2.00;;;15.50;99.90;;;16.07;74.48;97557.91;10330589;28;20319;-69
2024/04/04 15:51:15;;;;;;;2.13;1.20;;;15.50;99.90;;;16.07;73.78;97560.47;10312551;28;20760;-67
2024/04/04 15:56:17;;;;;;;2.72;2.10;;;15.50;99.90;;;16.15;73.03;97579.66;10313097;28;20618;-68
2024/04/04 16:01:20;;;;;;;3.35;1.60;;;15.60;99.90;;;16.00;71.60;97577.47;10304902;28;20318;-68
2024/04/04 16:06:23;;;;;;;2.33;1.60;;;15.40;99.90;;;16.03;72.71;97598.19;10297254;28;20227;-70
2024/04/04 16:11:25;;;;;;;3.20;1.70;;;15.40;99.90;;;16.02;72.10;97590.41;10302004;28;20318;-66
2024/04/04 16:16:29;;;;;;;4.53;2.20;;;15.40;99.90;;;15.82;73.87;97594.91;10297507;28;20227;-66
2024/04/04 16:21:32;;;;;;;2.28;1.70;;;15.20;99.90;;;15.77;72.06;97618.00;10296245;28;20570;-69
2024/04/04 16:26:34;;;;;;;2.83;2.17;;;15.10;99.90;;;15.31;72.98;97631.88;10292693;28;20883;-71
2024/04/04 16:31:38;;;;;;;3.08;2.08;;;14.80;99.90;;;15.38;73.85;97636.38;10307250;28;20631;-68
2024/04/04 16:36:41;;;;;;;2.78;2.42;;;14.70;99.90;;;15.18;75.13;97638.25;10308168;28;20579;-68
2024/04/04 16:41:44;;;;;;;2.53;2.05;;;14.50;99.90;;;15.11;76.11;97646.59;10311075;28;20695;-68
2024/04/04 16:46:46;;;;;;;3.47;2.30;;;14.40;99.90;;;15.31;75.16;97643.03;10290324;28;20312;-67
2024/04/04 16:51:50;;;;;;;4.68;3.05;;;14.50;99.90;;;15.18;77.21;97648.56;10295746;28;20341;-68
2024/04/04 16:56:52;;;;;;;3.00;2.58;;;14.40;99.90;;;15.35;75.65;97631.13;10289606;28;20526;-67
2024/04/04 17:01:55;;;;;;;3.35;2.38;;;14.40;99.90;;;15.22;76.11;97635.00;10292379;28;20373;-67
2024/04/04 17:07:01;;;;;;;3.55;2.33;;;14.30;99.90;;;15.20;76.55;97646.06;10295288;28;20309;-67
2024/04/04 17:12:04;;;;;;;2.50;1.80;;;14.30;99.90;;;15.26;75.91;97652.28;10290038;28;20286;-70
2024/04/04 17:17:06;;;;;;;3.67;2.97;;;14.40;99.90;;;15.23;76.59;97659.91;10291534;28;20318;-67
2024/04/04 17:22:10;;;;;;;23.10;20.67;;;14.40;99.90;;;15.18;76.72;97669.16;10303502;28;20259;-68
2024/04/04 17:27:13;;;;;;;12.40;10.98;;;14.30;99.90;;;15.20;76.07;97666.66;10292474;28;20317;-69
2024/04/04 17:32:15;;;;;;;7.30;6.70;;;14.40;99.90;;;15.16;76.41;97664.78;10296602;28;20648;-69
2024/04/04 17:37:18;;;;;;;4.25;3.85;;;14.30;99.90;;;15.03;77.48;97669.50;10304769;28;20315;-68
2024/04/04 17:42:20;;;;;;;3.83;3.47;;;14.20;99.90;;;14.95;78.32;97681.19;10318037;28;20314;-68
2024/04/04 17:47:22;;;;;;;2.72;2.53;;;14.10;99.90;;;14.52;82.94;97681.28;10293763;28;20657;-67
2024/04/04 17:52:26;;;;;;;3.28;2.97;;;13.90;99.90;;;14.09;87.19;97692.41;10292288;28;20345;-68
2024/04/04 17:57:32;;;;;;;5.43;3.75;;;13.60;99.90;;;13.83;91.62;97706.75;10297503;28;20321;-67
2024/04/04 18:02:34;;;;;;;5.88;4.90;;;13.30;99.90;;;13.54;93.85;97705.53;10295339;28;20679;-69
2024/04/04 18:07:38;;;;;;;3.70;3.40;;;13.10;99.90;;;13.29;98.04;97707.03;10304594;28;20311;-66
2024/04/04 18:12:40;;;;;;;4.03;2.92;;;12.90;99.90;;;13.10;100.00;97712.97;10297362;28;20886;-71
2024/04/04 18:17:43;;;;;;;2.90;2.65;;;12.70;99.90;;;13.08;100.00;97730.88;10300593;28;20329;-70
2024/04/04 18:22:46;;;;;;;3.15;2.78;;;12.60;99.90;;;12.88;100.00;97734.25;10302724;28;20315;-66
2024/04/04 18:27:48;;;;;;;2.90;2.65;;;12.50;99.90;;;12.78;100.00;97729.47;10304066;28;20349;-66
2024/04/04 18:32:51;;;;;;;3.53;3.30;;;12.40;99.90;;;12.70;100.00;97738.50;10304412;28;20318;-69
2024/04/04 18:37:54;;;;;;;3.92;3.25;;;12.30;99.90;;;12.66;100.00;97749.44;10302836;28;20726;-69
2024/04/04 18:42:56;;;;;;;4.28;3.78;;;12.20;99.90;;;12.63;100.00;97761.31;10300879;28;20234;-68
2024/04/04 18:47:58;;;;;;;5.07;3.70;;;12.10;99.90;;;12.67;100.00;97754.63;10306501;28;20309;-65
2024/04/04 18:53:03;;;;;;;4.30;3.60;;;12.10;99.90;;;12.51;100.00;97750.47;10299939;28;21528;-65
2024/04/04 18:58:05;;;;;;;4.43;3.30;;;12.00;99.90;;;12.47;100.00;97756.25;10315788;28;20754;-68
2024/04/04 19:03:08;;;;;;;3.67;2.70;;;12.00;99.90;;;12.39;100.00;97749.91;10300772;28;20318;-67
2024/04/04 19:08:11;;;;;;;3.42;2.65;;;11.90;99.90;;;12.48;100.00;97752.03;10298848;28;20322;-65
2024/04/04 19:13:16;;;;;;;5.13;3.20;;;11.90;99.90;;;12.44;100.00;97763.78;10314118;28;20269;-66
2024/04/04 19:18:18;;;;;;;4.03;2.50;;;11.90;99.90;;;12.38;100.00;97779.75;10309577;28;20795;-68
2024/04/04 19:23:22;;;;;;;4.40;2.60;;;11.90;99.90;;;12.16;100.00;97793.22;10303708;28;20227;-70
2024/04/04 19:28:25;;;;;;;2.75;2.53;;;11.70;99.90;;;12.10;100.00;97792.91;10302043;28;20223;-66
2024/04/04 19:33:29;;;;;;;4.68;2.78;;;11.60;99.90;;;11.94;100.00;97790.38;10304815;28;20285;-68
2024/04/04 19:38:33;;;;;;;3.88;3.47;;;11.50;99.90;;;11.82;100.00;97799.97;10306547;28;20288;-65
2024/04/04 19:43:36;;;;;;;3.22;3.03;;;11.30;99.90;;;11.83;100.00;97797.47;10294655;28;20906;-68
2024/04/04 19:48:39;;;;;;;5.18;3.85;;;11.30;99.90;;;11.79;100.00;97799.78;10293099;28;20806;-69
2024/04/04 19:53:42;;;;;;;58.25;30.13;;;11.30;99.90;;;11.73;100.00;97806.38;10320319;28;20337;-67
2024/04/04 19:58:44;;;;;;;44.95;23.05;;;11.20;99.90;;;11.68;100.00;97805.25;10296635;28;20314;-66
2024/04/04 20:03:46;;;;;;;68.40;36.33;;;11.10;99.90;;;11.68;100.00;97820.63;10284374;28;20661;-70
2024/04/04 20:08:50;;;;;;;109.03;50.92;;;11.10;99.90;;;11.68;100.00;97823.19;10290937;28;20225;-66
2024/04/04 20:13:52;;;;;;;221.40;98.97;;;11.10;99.90;;;11.75;100.00;97839.72;10286111;28;20588;-68
2024/04/04 20:18:54;;;;;;;17.58;10.50;;;11.20;99.90;;;11.77;100.00;97838.13;10297358;28;20233;-70
2024/04/04 20:23:58;;;;;;;225.50;111.30;;;11.20;99.90;;;11.78;100.00;97836.44;10283283;28;20250;-67
2024/04/04 20:29:01;;;;;;;36.45;24.55;;;11.20;99.90;;;11.77;100.00;97834.69;10283511;28;20707;-69
2024/04/04 20:34:03;;;;;;;79.55;52.30;;;11.20;99.90;;;11.73;100.00;97824.31;10302920;28;20235;-69
2024/04/04 20:39:07;;;;;;;7.25;5.97;;;11.10;99.90;;;12.02;100.00;97822.38;10305858;28;20249;-70
2024/04/04 20:44:09;;;;;;;5.68;4.55;;;11.30;99.90;;;11.93;100.00;97832.13;10299835;28;20245;-66
2024/04/04 20:55:54;;;;;;;3.80;2.97;;;11.30;99.90;;;11.86;100.00;97843.75;10307939;28;20727;-67
2024/04/04 21:00:57;;;;;;;3.88;2.30;;;11.30;99.90;;;11.89;100.00;97858.41;10299408;28;21187;-69
2024/04/04 21:05:59;;;;;;;2.42;2.22;;;11.30;99.90;;;11.84;100.00;97864.94;10293608;28;20321;-69
2024/04/04 21:11:02;;;;;;;3.88;3.25;;;11.30;99.90;;;11.82;100.00;97877.69;10313174;28;20385;-65
2024/04/04 21:16:05;;;;;;;6.05;5.15;;;11.20;99.90;;;11.83;100.00;97878.56;10294124;28;20235;-71